sensor_id;sensor_type;location;lat;lon;timestamp;temperature;humidity
40151;DHT22;25866;52.420;10.640;2023-03-01T00:01:17;-1.80;99.90
40151;DHT22;25866;52.420;10.640;2023-03-01T00:03:43;-1.70;99.90
40151;DHT22;25866;52.420;10.640;2023-03-01T00:06:09;-1.80;99.90
40151;DHT22;25866;52.420;10.640;2023-03-01T00:08:35;-1.90;99.90
40151;DHT22;25866;52.420;10.640;2023-03-01T00:13:30;-1.90;99.90
40151;DHT22;25866;52.420;10.640;2023-03-01T00:15:56;-1.90;99.90
40151;DHT22;25866;52.420;10.640;2023-03-01T00:18:22;-1.90;99.90
40151;DHT22;25866;52.420;10.640;2023-03-01T00:20:55;-1.90;99.90
40151;DHT22;25866;52.420;10.640;2023-03-01T00:23:21;-2.00;99.90
40151;DHT22;25866;52.420;10.640;2023-03-01T00:25:47;-2.00;99.90
40151;DHT22;25866;52.420;10.640;2023-03-01T00:28:13;-2.10;99.90
40151;DHT22;25866;52.420;10.640;2023-03-01T00:30:38;-2.20;99.90
40151;DHT22;25866;52.420;10.640;2023-03-01T00:33:04;-2.20;99.90
40151;DHT22;25866;52.420;10.640;2023-03-01T00:35:32;-2.20;99.90
40151;DHT22;25866;52.420;10.640;2023-03-01T00:37:58;-2.20;99.90
40151;DHT22;25866;52.420;10.640;2023-03-01T00:40:25;-2.20;99.90
40151;DHT22;25866;52.420;10.640;2023-03-01T00:42:51;-2.20;99.90
40151;DHT22;25866;52.420;10.640;2023-03-01T00:45:17;-2.20;99.90
40151;DHT22;25866;52.420;10.640;2023-03-01T00:47:43;-2.10;99.90
40151;DHT22;25866;52.420;10.640;2023-03-01T00:50:10;-2.10;99.90
40151;DHT22;25866;52.420;10.640;2023-03-01T00:52:36;-2.10;99.90
40151;DHT22;25866;52.420;10.640;2023-03-01T00:55:03;-2.20;99.90
40151;DHT22;25866;52.420;10.640;2023-03-01T00:57:29;-2.30;99.90
40151;DHT22;25866;52.420;10.640;2023-03-01T00:59:55;-2.30;99.90
40151;DHT22;25866;52.420;10.640;2023-03-01T01:02:20;-2.30;99.90
40151;DHT22;25866;52.420;10.640;2023-03-01T01:04:47;-2.30;99.90
40151;DHT22;25866;52.420;10.640;2023-03-01T01:07:16;-2.30;99.90
40151;DHT22;25866;52.420;10.640;2023-03-01T01:09:42;-2.30;99.90
40151;DHT22;25866;52.420;10.640;2023-03-01T01:12:08;-2.40;99.90
40151;DHT22;25866;52.420;10.640;2023-03-01T01:14:34;-2.40;99.90
40151;DHT22;25866;52.420;10.640;2023-03-01T01:17:00;-2.40;99.90
40151;DHT22;25866;52.420;10.640;2023-03-01T01:19:26;-2.40;99.90
40151;DHT22;25866;52.420;10.640;2023-03-01T01:21:52;-2.40;99.90
40151;DHT22;25866;52.420;10.640;2023-03-01T01:24:18;-2.40;99.90
40151;DHT22;25866;52.420;10.640;2023-03-01T01:26:46;-2.40;99.90
40151;DHT22;25866;52.420;10.640;2023-03-01T01:29:12;-2.40;99.90
40151;DHT22;25866;52.420;10.640;2023-03-01T01:31:39;-2.40;99.90
40151;DHT22;25866;52.420;10.640;2023-03-01T01:34:08;-2.40;99.90
40151;DHT22;25866;52.420;10.640;2023-03-01T01:36:34;-2.50;99.90
40151;DHT22;25866;52.420;10.640;2023-03-01T01:39:00;-2.50;99.90
40151;DHT22;25866;52.420;10.640;2023-03-01T01:41:28;-2.40;99.90
40151;DHT22;25866;52.420;10.640;2023-03-01T01:46:57;-2.40;99.90
40151;DHT22;25866;52.420;10.640;2023-03-01T01:49:45;-2.50;99.90
40151;DHT22;25866;52.420;10.640;2023-03-01T01:52:24;-2.60;99.90
40151;DHT22;25866;52.420;10.640;2023-03-01T01:57:32;-2.60;99.90
40151;DHT22;25866;52.420;10.640;2023-03-01T02:00:03;-2.60;99.90
40151;DHT22;25866;52.420;10.640;2023-03-01T02:02:29;-2.70;99.90
40151;DHT22;25866;52.420;10.640;2023-03-01T02:05:12;-2.70;99.90
40151;DHT22;25866;52.420;10.640;2023-03-01T02:07:42;-2.60;99.90
40151;DHT22;25866;52.420;10.640;2023-03-01T02:10:08;-2.60;99.90
40151;DHT22;25866;52.420;10.640;2023-03-01T02:12:36;-2.70;99.90
40151;DHT22;25866;52.420;10.640;2023-03-01T02:15:02;-2.80;99.90
40151;DHT22;25866;52.420;10.640;2023-03-01T02:17:29;-2.80;99.90
40151;DHT22;25866;52.420;10.640;2023-03-01T02:20:16;-2.90;99.90
40151;DHT22;25866;52.420;10.640;2023-03-01T02:22:45;-3.00;99.90
40151;DHT22;25866;52.420;10.640;2023-03-01T02:28:32;-3.20;99.90
40151;DHT22;25866;52.420;10.640;2023-03-01T02:30:59;-3.30;99.90
40151;DHT22;25866;52.420;10.640;2023-03-01T02:33:44;-3.30;99.90
40151;DHT22;25866;52.420;10.640;2023-03-01T02:36:24;-3.40;99.90
40151;DHT22;25866;52.420;10.640;2023-03-01T02:38:55;-3.50;99.90
40151;DHT22;25866;52.420;10.640;2023-03-01T02:41:22;-3.50;99.90
40151;DHT22;25866;52.420;10.640;2023-03-01T02:43:49;-3.50;99.90
40151;DHT22;25866;52.420;10.640;2023-03-01T02:46:17;-3.50;99.90
40151;DHT22;25866;52.420;10.640;2023-03-01T02:48:47;-3.50;99.90
40151;DHT22;25866;52.420;10.640;2023-03-01T02:54:12;-3.40;99.90
40151;DHT22;25866;52.420;10.640;2023-03-01T02:56:41;-3.30;99.90
40151;DHT22;25866;52.420;10.640;2023-03-01T02:59:09;-3.30;99.90
40151;DHT22;25866;52.420;10.640;2023-03-01T03:01:35;-3.30;99.90
40151;DHT22;25866;52.420;10.640;2023-03-01T03:04:05;-3.30;99.90
40151;DHT22;25866;52.420;10.640;2023-03-01T03:06:31;-3.30;99.90
40151;DHT22;25866;52.420;10.640;2023-03-01T03:08:57;-3.20;99.90
40151;DHT22;25866;52.420;10.640;2023-03-01T03:11:23;-3.20;99.90
40151;DHT22;25866;52.420;10.640;2023-03-01T03:13:49;-3.10;99.90
40151;DHT22;25866;52.420;10.640;2023-03-01T03:16:15;-3.10;99.90
40151;DHT22;25866;52.420;10.640;2023-03-01T03:18:40;-3.20;99.90
40151;DHT22;25866;52.420;10.640;2023-03-01T03:21:11;-3.30;99.90
40151;DHT22;25866;52.420;10.640;2023-03-01T03:23:37;-3.30;99.90
40151;DHT22;25866;52.420;10.640;2023-03-01T03:26:03;-3.30;99.90
40151;DHT22;25866;52.420;10.640;2023-03-01T03:28:32;-3.30;99.90
40151;DHT22;25866;52.420;10.640;2023-03-01T03:30:58;-3.30;99.90
40151;DHT22;25866;52.420;10.640;2023-03-01T03:33:24;-3.20;99.90
40151;DHT22;25866;52.420;10.640;2023-03-01T03:35:50;-3.20;99.90
40151;DHT22;25866;52.420;10.640;2023-03-01T03:38:18;-3.20;99.90
40151;DHT22;25866;52.420;10.640;2023-03-01T03:40:47;-3.20;99.90
40151;DHT22;25866;52.420;10.640;2023-03-01T03:43:16;-3.30;99.90
40151;DHT22;25866;52.420;10.640;2023-03-01T03:45:44;-3.20;99.90
40151;DHT22;25866;52.420;10.640;2023-03-01T03:48:12;-3.30;99.90
40151;DHT22;25866;52.420;10.640;2023-03-01T03:50:39;-3.30;99.90
40151;DHT22;25866;52.420;10.640;2023-03-01T03:53:08;-3.30;99.90
40151;DHT22;25866;52.420;10.640;2023-03-01T03:55:34;-3.20;99.90
40151;DHT22;25866;52.420;10.640;2023-03-01T03:58:01;-3.30;99.90
40151;DHT22;25866;52.420;10.640;2023-03-01T04:00:36;-3.30;99.90
40151;DHT22;25866;52.420;10.640;2023-03-01T04:03:03;-3.20;99.90
40151;DHT22;25866;52.420;10.640;2023-03-01T04:05:29;-3.30;99.90
40151;DHT22;25866;52.420;10.640;2023-03-01T04:07:56;-3.20;99.90
40151;DHT22;25866;52.420;10.640;2023-03-01T04:10:32;-3.20;99.90
40151;DHT22;25866;52.420;10.640;2023-03-01T04:12:58;-3.20;99.90
40151;DHT22;25866;52.420;10.640;2023-03-01T04:15:25;-3.20;99.90
40151;DHT22;25866;52.420;10.640;2023-03-01T04:17:53;-3.20;99.90
40151;DHT22;25866;52.420;10.640;2023-03-01T04:20:28;-3.30;99.90
40151;DHT22;25866;52.420;10.640;2023-03-01T04:22:58;-3.30;99.90
40151;DHT22;25866;52.420;10.640;2023-03-01T04:25:25;-3.30;99.90
40151;DHT22;25866;52.420;10.640;2023-03-01T04:27:50;-3.30;99.90
40151;DHT22;25866;52.420;10.640;2023-03-01T04:30:16;-3.30;99.90
40151;DHT22;25866;52.420;10.640;2023-03-01T04:32:42;-3.30;99.90
40151;DHT22;25866;52.420;10.640;2023-03-01T04:35:08;-3.40;99.90
40151;DHT22;25866;52.420;10.640;2023-03-01T04:37:34;-3.40;99.90
40151;DHT22;25866;52.420;10.640;2023-03-01T04:40:02;-3.50;99.90
40151;DHT22;25866;52.420;10.640;2023-03-01T04:42:42;-3.40;99.90
40151;DHT22;25866;52.420;10.640;2023-03-01T04:45:08;-3.40;99.90
40151;DHT22;25866;52.420;10.640;2023-03-01T04:47:42;-3.40;99.90
40151;DHT22;25866;52.420;10.640;2023-03-01T04:50:10;-3.40;99.90
40151;DHT22;25866;52.420;10.640;2023-03-01T04:52:37;-3.50;99.90
40151;DHT22;25866;52.420;10.640;2023-03-01T04:55:03;-3.50;99.90
40151;DHT22;25866;52.420;10.640;2023-03-01T04:57:30;-3.50;99.90
40151;DHT22;25866;52.420;10.640;2023-03-01T04:59:56;-3.40;99.90
40151;DHT22;25866;52.420;10.640;2023-03-01T05:02:22;-3.40;99.90
40151;DHT22;25866;52.420;10.640;2023-03-01T05:04:48;-3.40;99.90
40151;DHT22;25866;52.420;10.640;2023-03-01T05:07:14;-3.40;99.90
40151;DHT22;25866;52.420;10.640;2023-03-01T05:09:45;-3.40;99.90
40151;DHT22;25866;52.420;10.640;2023-03-01T05:12:11;-3.60;99.90
40151;DHT22;25866;52.420;10.640;2023-03-01T05:14:37;-3.60;99.90
40151;DHT22;25866;52.420;10.640;2023-03-01T05:17:04;-3.60;99.90
40151;DHT22;25866;52.420;10.640;2023-03-01T05:19:31;-3.60;99.90
40151;DHT22;25866;52.420;10.640;2023-03-01T05:21:57;-3.90;99.90
40151;DHT22;25866;52.420;10.640;2023-03-01T05:24:34;-3.80;99.90
40151;DHT22;25866;52.420;10.640;2023-03-01T05:27:01;-3.80;99.90
40151;DHT22;25866;52.420;10.640;2023-03-01T05:29:28;-3.80;99.90
40151;DHT22;25866;52.420;10.640;2023-03-01T05:31:56;-3.70;99.90
40151;DHT22;25866;52.420;10.640;2023-03-01T05:34:29;-3.80;99.90
40151;DHT22;25866;52.420;10.640;2023-03-01T05:36:55;-3.80;99.90
40151;DHT22;25866;52.420;10.640;2023-03-01T05:39:24;-3.80;99.90
40151;DHT22;25866;52.420;10.640;2023-03-01T05:41:59;-3.80;99.90
40151;DHT22;25866;52.420;10.640;2023-03-01T05:44:26;-3.80;99.90
40151;DHT22;25866;52.420;10.640;2023-03-01T05:46:52;-3.80;99.90
40151;DHT22;25866;52.420;10.640;2023-03-01T05:49:18;-3.80;99.90
40151;DHT22;25866;52.420;10.640;2023-03-01T05:51:48;-3.90;99.90
40151;DHT22;25866;52.420;10.640;2023-03-01T05:54:14;-4.00;99.90
40151;DHT22;25866;52.420;10.640;2023-03-01T05:56:40;-4.10;99.90
40151;DHT22;25866;52.420;10.640;2023-03-01T05:59:06;-4.20;99.90
40151;DHT22;25866;52.420;10.640;2023-03-01T06:01:32;-4.20;99.90
40151;DHT22;25866;52.420;10.640;2023-03-01T06:03:58;-4.20;99.90
40151;DHT22;25866;52.420;10.640;2023-03-01T06:06:24;-4.30;99.90
40151;DHT22;25866;52.420;10.640;2023-03-01T06:08:51;-4.20;99.90
40151;DHT22;25866;52.420;10.640;2023-03-01T06:11:16;-4.20;99.90
40151;DHT22;25866;52.420;10.640;2023-03-01T06:13:43;-4.20;99.90
40151;DHT22;25866;52.420;10.640;2023-03-01T06:16:09;-4.30;99.90
40151;DHT22;25866;52.420;10.640;2023-03-01T06:18:37;-4.20;99.90
40151;DHT22;25866;52.420;10.640;2023-03-01T06:21:04;-4.30;99.90
40151;DHT22;25866;52.420;10.640;2023-03-01T06:23:31;-4.30;99.90
40151;DHT22;25866;52.420;10.640;2023-03-01T06:25:56;-4.20;99.90
40151;DHT22;25866;52.420;10.640;2023-03-01T06:28:22;-4.30;99.90
40151;DHT22;25866;52.420;10.640;2023-03-01T06:30:49;-4.30;99.90
40151;DHT22;25866;52.420;10.640;2023-03-01T06:33:15;-4.30;99.90
40151;DHT22;25866;52.420;10.640;2023-03-01T06:35:41;-4.20;99.90
40151;DHT22;25866;52.420;10.640;2023-03-01T06:38:07;-4.20;99.90
40151;DHT22;25866;52.420;10.640;2023-03-01T06:40:33;-4.30;99.90
40151;DHT22;25866;52.420;10.640;2023-03-01T06:43:01;-4.20;99.90
40151;DHT22;25866;52.420;10.640;2023-03-01T06:45:26;-4.10;99.90
40151;DHT22;25866;52.420;10.640;2023-03-01T06:47:52;-4.00;99.90
40151;DHT22;25866;52.420;10.640;2023-03-01T06:50:20;-4.00;99.90
40151;DHT22;25866;52.420;10.640;2023-03-01T06:52:46;-4.00;99.90
40151;DHT22;25866;52.420;10.640;2023-03-01T06:55:12;-4.00;99.90
40151;DHT22;25866;52.420;10.640;2023-03-01T06:57:38;-3.90;99.90
40151;DHT22;25866;52.420;10.640;2023-03-01T07:00:05;-3.90;99.90
40151;DHT22;25866;52.420;10.640;2023-03-01T07:02:31;-3.80;99.90
40151;DHT22;25866;52.420;10.640;2023-03-01T07:04:57;-3.70;99.90
40151;DHT22;25866;52.420;10.640;2023-03-01T07:07:22;-3.60;99.90
40151;DHT22;25866;52.420;10.640;2023-03-01T07:09:49;-3.50;99.90
40151;DHT22;25866;52.420;10.640;2023-03-01T07:12:15;-3.30;99.90
40151;DHT22;25866;52.420;10.640;2023-03-01T07:14:41;-3.30;99.90
40151;DHT22;25866;52.420;10.640;2023-03-01T07:17:09;-3.10;99.90
40151;DHT22;25866;52.420;10.640;2023-03-01T07:19:34;-3.00;99.90
40151;DHT22;25866;52.420;10.640;2023-03-01T07:22:00;-2.90;99.90
40151;DHT22;25866;52.420;10.640;2023-03-01T07:24:26;-2.80;99.90
40151;DHT22;25866;52.420;10.640;2023-03-01T07:26:52;-2.70;99.90
40151;DHT22;25866;52.420;10.640;2023-03-01T07:29:19;-2.60;99.90
40151;DHT22;25866;52.420;10.640;2023-03-01T07:31:44;-2.50;99.90
40151;DHT22;25866;52.420;10.640;2023-03-01T07:34:10;-2.40;99.90
40151;DHT22;25866;52.420;10.640;2023-03-01T07:36:36;-2.30;99.90
40151;DHT22;25866;52.420;10.640;2023-03-01T07:39:05;-2.20;99.90
40151;DHT22;25866;52.420;10.640;2023-03-01T07:41:31;-2.10;99.90
40151;DHT22;25866;52.420;10.640;2023-03-01T07:43:57;-2.10;99.90
40151;DHT22;25866;52.420;10.640;2023-03-01T07:46:22;-2.00;99.90
40151;DHT22;25866;52.420;10.640;2023-03-01T07:48:48;-1.90;99.90
40151;DHT22;25866;52.420;10.640;2023-03-01T07:51:13;-1.80;99.90
40151;DHT22;25866;52.420;10.640;2023-03-01T07:53:39;-1.80;99.90
40151;DHT22;25866;52.420;10.640;2023-03-01T07:56:10;-1.60;99.90
40151;DHT22;25866;52.420;10.640;2023-03-01T07:58:37;-1.60;99.90
40151;DHT22;25866;52.420;10.640;2023-03-01T08:01:05;-1.50;99.90
40151;DHT22;25866;52.420;10.640;2023-03-01T08:03:32;-1.40;99.90
40151;DHT22;25866;52.420;10.640;2023-03-01T08:06:02;-1.40;99.90
40151;DHT22;25866;52.420;10.640;2023-03-01T08:08:27;-1.30;99.90
40151;DHT22;25866;52.420;10.640;2023-03-01T08:10:56;-1.30;99.90
40151;DHT22;25866;52.420;10.640;2023-03-01T08:13:22;-1.20;99.90
40151;DHT22;25866;52.420;10.640;2023-03-01T08:15:48;-1.20;99.90
40151;DHT22;25866;52.420;10.640;2023-03-01T08:18:15;-1.20;99.90
40151;DHT22;25866;52.420;10.640;2023-03-01T08:20:41;-1.10;99.90
40151;DHT22;25866;52.420;10.640;2023-03-01T08:23:06;-1.00;99.90
40151;DHT22;25866;52.420;10.640;2023-03-01T08:25:32;-1.00;99.90
40151;DHT22;25866;52.420;10.640;2023-03-01T08:27:57;-0.80;99.90
40151;DHT22;25866;52.420;10.640;2023-03-01T08:30:23;-0.80;99.90
40151;DHT22;25866;52.420;10.640;2023-03-01T08:32:49;-0.80;99.90
40151;DHT22;25866;52.420;10.640;2023-03-01T08:35:15;-0.70;99.90
40151;DHT22;25866;52.420;10.640;2023-03-01T08:37:41;-0.60;99.90
40151;DHT22;25866;52.420;10.640;2023-03-01T08:40:08;-0.50;99.90
40151;DHT22;25866;52.420;10.640;2023-03-01T08:42:36;-0.30;99.90
40151;DHT22;25866;52.420;10.640;2023-03-01T08:45:03;-0.30;99.90
40151;DHT22;25866;52.420;10.640;2023-03-01T08:47:29;-0.10;99.90
40151;DHT22;25866;52.420;10.640;2023-03-01T08:49:54;0.00;99.90
40151;DHT22;25866;52.420;10.640;2023-03-01T08:52:21;0.20;99.90
40151;DHT22;25866;52.420;10.640;2023-03-01T08:54:50;0.30;99.90
40151;DHT22;25866;52.420;10.640;2023-03-01T08:57:15;0.40;99.90
40151;DHT22;25866;52.420;10.640;2023-03-01T08:59:44;0.60;99.90
40151;DHT22;25866;52.420;10.640;2023-03-01T09:02:16;0.70;99.90
40151;DHT22;25866;52.420;10.640;2023-03-01T09:04:42;0.90;99.90
40151;DHT22;25866;52.420;10.640;2023-03-01T09:07:08;1.10;99.90
40151;DHT22;25866;52.420;10.640;2023-03-01T09:09:34;1.20;99.90
40151;DHT22;25866;52.420;10.640;2023-03-01T09:12:00;1.30;99.90
40151;DHT22;25866;52.420;10.640;2023-03-01T09:14:26;1.40;99.90
40151;DHT22;25866;52.420;10.640;2023-03-01T09:16:52;1.60;99.90
40151;DHT22;25866;52.420;10.640;2023-03-01T09:19:17;1.70;99.90
40151;DHT22;25866;52.420;10.640;2023-03-01T09:21:43;1.80;99.90
40151;DHT22;25866;52.420;10.640;2023-03-01T09:24:22;1.80;99.90
40151;DHT22;25866;52.420;10.640;2023-03-01T09:26:48;1.90;99.90
40151;DHT22;25866;52.420;10.640;2023-03-01T09:29:14;2.00;99.90
40151;DHT22;25866;52.420;10.640;2023-03-01T09:31:41;2.00;99.90
40151;DHT22;25866;52.420;10.640;2023-03-01T09:34:07;2.10;99.90
40151;DHT22;25866;52.420;10.640;2023-03-01T09:36:33;2.20;99.90
40151;DHT22;25866;52.420;10.640;2023-03-01T09:38:59;2.30;99.90
40151;DHT22;25866;52.420;10.640;2023-03-01T09:41:36;2.40;99.90
40151;DHT22;25866;52.420;10.640;2023-03-01T09:46:42;2.50;99.90
40151;DHT22;25866;52.420;10.640;2023-03-01T09:49:21;2.70;99.90
40151;DHT22;25866;52.420;10.640;2023-03-01T09:51:59;2.90;99.90
40151;DHT22;25866;52.420;10.640;2023-03-01T09:54:26;2.90;99.90
40151;DHT22;25866;52.420;10.640;2023-03-01T09:59:24;3.10;99.90
40151;DHT22;25866;52.420;10.640;2023-03-01T10:04:51;3.40;99.90
40151;DHT22;25866;52.420;10.640;2023-03-01T10:07:45;3.40;99.90
40151;DHT22;25866;52.420;10.640;2023-03-01T10:10:34;3.50;99.90
40151;DHT22;25866;52.420;10.640;2023-03-01T10:13:18;3.50;99.90
40151;DHT22;25866;52.420;10.640;2023-03-01T10:16:01;3.60;99.90
40151;DHT22;25866;52.420;10.640;2023-03-01T10:18:30;3.60;99.90
40151;DHT22;25866;52.420;10.640;2023-03-01T10:21:08;3.60;99.90
40151;DHT22;25866;52.420;10.640;2023-03-01T10:23:37;3.70;99.90
40151;DHT22;25866;52.420;10.640;2023-03-01T10:29:31;3.90;99.90
40151;DHT22;25866;52.420;10.640;2023-03-01T10:32:04;3.90;99.90
40151;DHT22;25866;52.420;10.640;2023-03-01T10:34:34;4.00;99.90
40151;DHT22;25866;52.420;10.640;2023-03-01T10:37:17;4.00;99.90
40151;DHT22;25866;52.420;10.640;2023-03-01T10:42:31;4.10;99.90
40151;DHT22;25866;52.420;10.640;2023-03-01T10:44:57;4.20;99.90
40151;DHT22;25866;52.420;10.640;2023-03-01T10:47:26;4.20;99.90
40151;DHT22;25866;52.420;10.640;2023-03-01T10:49:59;4.30;99.90
40151;DHT22;25866;52.420;10.640;2023-03-01T10:52:29;4.20;99.90
40151;DHT22;25866;52.420;10.640;2023-03-01T10:55:04;4.30;99.90
40151;DHT22;25866;52.420;10.640;2023-03-01T10:57:48;4.30;99.90
40151;DHT22;25866;52.420;10.640;2023-03-01T11:00:21;4.40;99.90
40151;DHT22;25866;52.420;10.640;2023-03-01T11:03:03;4.40;99.90
40151;DHT22;25866;52.420;10.640;2023-03-01T11:05:29;4.40;99.50
40151;DHT22;25866;52.420;10.640;2023-03-01T11:07:56;4.50;99.90
40151;DHT22;25866;52.420;10.640;2023-03-01T11:10:28;4.60;99.30
40151;DHT22;25866;52.420;10.640;2023-03-01T11:15:34;4.80;99.30
40151;DHT22;25866;52.420;10.640;2023-03-01T11:18:00;4.90;98.10
40151;DHT22;25866;52.420;10.640;2023-03-01T11:20:35;4.90;98.10
40151;DHT22;25866;52.420;10.640;2023-03-01T11:23:10;5.10;98.20
40151;DHT22;25866;52.420;10.640;2023-03-01T11:26:01;5.10;98.10
40151;DHT22;25866;52.420;10.640;2023-03-01T11:28:25;5.10;97.70
40151;DHT22;25866;52.420;10.640;2023-03-01T11:31:19;5.10;98.00
40151;DHT22;25866;52.420;10.640;2023-03-01T11:33:52;5.30;97.30
40151;DHT22;25866;52.420;10.640;2023-03-01T11:36:30;5.30;96.90
40151;DHT22;25866;52.420;10.640;2023-03-01T11:39:01;5.40;95.70
40151;DHT22;25866;52.420;10.640;2023-03-01T11:41:31;5.40;95.40
40151;DHT22;25866;52.420;10.640;2023-03-01T11:44:23;5.40;95.00
40151;DHT22;25866;52.420;10.640;2023-03-01T11:58:25;5.60;95.30
40151;DHT22;25866;52.420;10.640;2023-03-01T12:07:12;5.80;94.30
40151;DHT22;25866;52.420;10.640;2023-03-01T12:10:04;5.90;95.00
40151;DHT22;25866;52.420;10.640;2023-03-01T12:13:13;6.00;94.70
40151;DHT22;25866;52.420;10.640;2023-03-01T12:22:34;6.00;94.00
40151;DHT22;25866;52.420;10.640;2023-03-01T12:28:31;6.20;94.40
40151;DHT22;25866;52.420;10.640;2023-03-01T12:37:25;6.30;92.90
40151;DHT22;25866;52.420;10.640;2023-03-01T12:40:21;6.30;93.30
40151;DHT22;25866;52.420;10.640;2023-03-01T12:43:13;6.40;94.30
40151;DHT22;25866;52.420;10.640;2023-03-01T12:51:26;6.40;93.30
40151;DHT22;25866;52.420;10.640;2023-03-01T12:53:57;6.60;93.10
40151;DHT22;25866;52.420;10.640;2023-03-01T12:56:28;6.60;92.50
40151;DHT22;25866;52.420;10.640;2023-03-01T13:07:29;6.50;91.10
40151;DHT22;25866;52.420;10.640;2023-03-01T13:13:11;6.60;90.80
40151;DHT22;25866;52.420;10.640;2023-03-01T13:15:38;6.50;90.50
40151;DHT22;25866;52.420;10.640;2023-03-01T13:20:55;6.60;91.00
40151;DHT22;25866;52.420;10.640;2023-03-01T13:28:38;6.70;89.40
40151;DHT22;25866;52.420;10.640;2023-03-01T13:31:11;6.60;88.50
40151;DHT22;25866;52.420;10.640;2023-03-01T13:34:00;6.70;89.50
40151;DHT22;25866;52.420;10.640;2023-03-01T13:47:12;7.00;89.70
40151;DHT22;25866;52.420;10.640;2023-03-01T13:49:51;6.90;89.60
40151;DHT22;25866;52.420;10.640;2023-03-01T13:54:47;7.00;88.40
40151;DHT22;25866;52.420;10.640;2023-03-01T13:57:21;7.10;90.30
40151;DHT22;25866;52.420;10.640;2023-03-01T13:59:48;7.30;90.90
40151;DHT22;25866;52.420;10.640;2023-03-01T14:02:13;7.50;90.90
40151;DHT22;25866;52.420;10.640;2023-03-01T14:04:40;7.40;89.60
40151;DHT22;25866;52.420;10.640;2023-03-01T14:07:17;7.40;90.00
40151;DHT22;25866;52.420;10.640;2023-03-01T14:09:45;7.50;90.10
40151;DHT22;25866;52.420;10.640;2023-03-01T14:17:41;7.60;89.00
40151;DHT22;25866;52.420;10.640;2023-03-01T14:20:21;7.60;90.10
40151;DHT22;25866;52.420;10.640;2023-03-01T14:22:50;7.70;89.20
40151;DHT22;25866;52.420;10.640;2023-03-01T14:30:25;7.50;90.60
40151;DHT22;25866;52.420;10.640;2023-03-01T14:32:56;7.50;87.90
40151;DHT22;25866;52.420;10.640;2023-03-01T14:35:30;7.40;90.40
40151;DHT22;25866;52.420;10.640;2023-03-01T14:37:56;7.40;90.20
40151;DHT22;25866;52.420;10.640;2023-03-01T14:40:36;7.40;90.80
40151;DHT22;25866;52.420;10.640;2023-03-01T14:43:09;7.30;90.80
40151;DHT22;25866;52.420;10.640;2023-03-01T14:45:36;7.30;89.80
40151;DHT22;25866;52.420;10.640;2023-03-01T14:48:04;7.30;90.10
40151;DHT22;25866;52.420;10.640;2023-03-01T14:50:35;7.30;88.70
40151;DHT22;25866;52.420;10.640;2023-03-01T14:53:04;7.40;90.40
40151;DHT22;25866;52.420;10.640;2023-03-01T14:55:33;7.40;90.10
40151;DHT22;25866;52.420;10.640;2023-03-01T14:58:03;7.30;88.00
40151;DHT22;25866;52.420;10.640;2023-03-01T15:00:30;7.40;90.00
40151;DHT22;25866;52.420;10.640;2023-03-01T15:03:02;7.40;88.30
40151;DHT22;25866;52.420;10.640;2023-03-01T15:05:32;7.30;89.60
40151;DHT22;25866;52.420;10.640;2023-03-01T15:08:00;7.30;89.40
40151;DHT22;25866;52.420;10.640;2023-03-01T15:10:36;7.20;90.70
40151;DHT22;25866;52.420;10.640;2023-03-01T15:13:22;7.20;90.90
40151;DHT22;25866;52.420;10.640;2023-03-01T15:15:49;7.20;90.40
40151;DHT22;25866;52.420;10.640;2023-03-01T15:18:25;7.10;89.40
40151;DHT22;25866;52.420;10.640;2023-03-01T15:20:52;7.00;90.80
40151;DHT22;25866;52.420;10.640;2023-03-01T15:23:21;6.90;91.10
40151;DHT22;25866;52.420;10.640;2023-03-01T15:25:48;6.90;91.20
40151;DHT22;25866;52.420;10.640;2023-03-01T15:28:27;6.90;87.00
40151;DHT22;25866;52.420;10.640;2023-03-01T15:31:04;6.90;88.80
40151;DHT22;25866;52.420;10.640;2023-03-01T15:33:36;6.90;88.50
40151;DHT22;25866;52.420;10.640;2023-03-01T15:38:56;6.80;86.00
40151;DHT22;25866;52.420;10.640;2023-03-01T15:43:58;6.60;87.40
40151;DHT22;25866;52.420;10.640;2023-03-01T15:46:33;6.60;88.60
40151;DHT22;25866;52.420;10.640;2023-03-01T15:51:57;6.50;90.40
40151;DHT22;25866;52.420;10.640;2023-03-01T15:54:25;6.60;90.60
40151;DHT22;25866;52.420;10.640;2023-03-01T15:56:52;6.60;89.80
40151;DHT22;25866;52.420;10.640;2023-03-01T15:59:18;6.50;90.40
40151;DHT22;25866;52.420;10.640;2023-03-01T16:01:44;6.50;90.40
40151;DHT22;25866;52.420;10.640;2023-03-01T16:04:12;6.40;90.70
40151;DHT22;25866;52.420;10.640;2023-03-01T16:06:42;6.40;91.40
40151;DHT22;25866;52.420;10.640;2023-03-01T16:09:08;6.30;91.20
40151;DHT22;25866;52.420;10.640;2023-03-01T16:11:35;6.30;92.30
40151;DHT22;25866;52.420;10.640;2023-03-01T16:14:02;6.20;92.60
40151;DHT22;25866;52.420;10.640;2023-03-01T16:16:28;6.20;92.10
40151;DHT22;25866;52.420;10.640;2023-03-01T16:18:54;6.10;92.80
40151;DHT22;25866;52.420;10.640;2023-03-01T16:21:22;6.00;93.30
40151;DHT22;25866;52.420;10.640;2023-03-01T16:23:49;6.00;92.40
40151;DHT22;25866;52.420;10.640;2023-03-01T16:26:15;6.00;92.90
40151;DHT22;25866;52.420;10.640;2023-03-01T16:28:42;5.90;92.80
40151;DHT22;25866;52.420;10.640;2023-03-01T16:31:08;5.80;93.00
40151;DHT22;25866;52.420;10.640;2023-03-01T16:33:34;5.80;92.80
40151;DHT22;25866;52.420;10.640;2023-03-01T16:36:10;5.70;92.90
40151;DHT22;25866;52.420;10.640;2023-03-01T16:38:37;5.60;93.40
40151;DHT22;25866;52.420;10.640;2023-03-01T16:41:04;5.50;93.10
40151;DHT22;25866;52.420;10.640;2023-03-01T16:43:30;5.40;93.80
40151;DHT22;25866;52.420;10.640;2023-03-01T16:45:56;5.40;93.50
40151;DHT22;25866;52.420;10.640;2023-03-01T16:48:24;5.40;93.60
40151;DHT22;25866;52.420;10.640;2023-03-01T16:50:59;5.30;93.90
40151;DHT22;25866;52.420;10.640;2023-03-01T16:53:26;5.20;94.30
40151;DHT22;25866;52.420;10.640;2023-03-01T16:55:58;5.20;94.50
40151;DHT22;25866;52.420;10.640;2023-03-01T16:58:25;5.00;94.70
40151;DHT22;25866;52.420;10.640;2023-03-01T17:00:54;4.90;94.60
40151;DHT22;25866;52.420;10.640;2023-03-01T17:03:21;4.90;94.80
40151;DHT22;25866;52.420;10.640;2023-03-01T17:05:47;4.90;94.40
40151;DHT22;25866;52.420;10.640;2023-03-01T17:08:12;4.80;94.90
40151;DHT22;25866;52.420;10.640;2023-03-01T17:10:38;4.70;95.20
40151;DHT22;25866;52.420;10.640;2023-03-01T17:13:04;4.70;95.10
40151;DHT22;25866;52.420;10.640;2023-03-01T17:15:29;4.60;95.50
40151;DHT22;25866;52.420;10.640;2023-03-01T17:17:55;4.50;95.30
40151;DHT22;25866;52.420;10.640;2023-03-01T17:20:21;4.40;96.00
40151;DHT22;25866;52.420;10.640;2023-03-01T17:22:47;4.30;97.10
40151;DHT22;25866;52.420;10.640;2023-03-01T17:25:12;4.30;96.90
40151;DHT22;25866;52.420;10.640;2023-03-01T17:27:39;4.20;97.20
40151;DHT22;25866;52.420;10.640;2023-03-01T17:30:10;4.10;97.40
40151;DHT22;25866;52.420;10.640;2023-03-01T17:32:36;4.10;96.80
40151;DHT22;25866;52.420;10.640;2023-03-01T17:35:02;4.00;97.40
40151;DHT22;25866;52.420;10.640;2023-03-01T17:37:28;4.00;98.80